createdAt,value
2022-10-21T00:01:40.661Z,13.07
2022-10-21T00:04:09.641Z,13.09
2022-10-21T00:06:38.040Z,13.11
2022-10-21T00:09:06.784Z,13.07
2022-10-21T00:11:35.372Z,13.07
2022-10-21T00:14:05.535Z,13.05
2022-10-21T00:16:34.037Z,13.05
2022-10-21T00:19:02.360Z,13.01
2022-10-21T00:21:30.798Z,13.01
2022-10-21T00:23:59.291Z,13.02
2022-10-21T00:26:27.540Z,13.02
2022-10-21T00:28:57.735Z,13.01
2022-10-21T00:31:29.006Z,13.01
2022-10-21T00:33:57.875Z,12.98
2022-10-21T00:36:26.835Z,13.00
2022-10-21T00:38:55.339Z,13.02
2022-10-21T00:41:24.267Z,13.03
2022-10-21T00:43:59.498Z,13.03
2022-10-21T00:46:41.684Z,12.99
2022-10-21T00:49:20.914Z,12.99
2022-10-21T00:51:53.823Z,12.96
2022-10-21T00:54:24.881Z,12.96
2022-10-21T00:56:56.823Z,12.93
2022-10-21T00:59:28.146Z,12.93
2022-10-21T01:01:58.675Z,12.90
2022-10-21T01:04:27.770Z,12.91
2022-10-21T01:06:56.983Z,12.91
2022-10-21T01:09:26.426Z,12.93
2022-10-21T01:11:55.785Z,12.91
2022-10-21T01:14:44.816Z,12.93
2022-10-21T01:17:40.634Z,12.92
2022-10-21T01:20:40.899Z,12.92
2022-10-21T01:23:44.221Z,12.90
2022-10-21T01:26:47.832Z,12.91
2022-10-21T01:29:48.555Z,12.90
2022-10-21T01:32:27.864Z,12.91
2022-10-21T01:35:04.584Z,12.91
2022-10-21T01:37:41.738Z,12.92
2022-10-21T01:40:16.212Z,12.92
2022-10-21T01:42:53.913Z,12.96
2022-10-21T01:45:30.603Z,12.98
2022-10-21T01:48:04.868Z,12.96
2022-10-21T01:50:40.322Z,12.96
2022-10-21T01:53:13.489Z,12.95
2022-10-21T01:55:43.491Z,12.96
2022-10-21T01:58:17.638Z,12.97
2022-10-21T02:00:47.910Z,12.94
2022-10-21T02:03:22.487Z,12.95
2022-10-21T02:05:51.483Z,12.91
2022-10-21T02:08:20.696Z,12.87
2022-10-21T02:10:52.348Z,12.87
2022-10-21T02:13:26.767Z,12.86
2022-10-21T02:15:58.485Z,12.83
2022-10-21T02:18:28.449Z,12.81
2022-10-21T02:21:01.215Z,12.80
2022-10-21T02:23:37.565Z,12.83
2022-10-21T02:26:06.362Z,12.81
2022-10-21T02:28:35.373Z,12.80
2022-10-21T02:31:17.202Z,12.78
2022-10-21T02:33:57.932Z,12.79
2022-10-21T02:36:38.297Z,12.78
2022-10-21T02:39:15.365Z,12.78
2022-10-21T02:41:46.405Z,12.80
2022-10-21T02:44:15.300Z,12.84
2022-10-21T02:46:45.733Z,12.83
2022-10-21T02:49:16.229Z,12.86
2022-10-21T02:51:45.244Z,12.86
2022-10-21T02:54:14.147Z,12.86
2022-10-21T02:56:42.769Z,12.87
2022-10-21T02:59:11.570Z,12.88
2022-10-21T03:01:40.374Z,12.91
2022-10-21T03:04:08.740Z,12.87
2022-10-21T03:06:38.602Z,12.93
2022-10-21T03:09:07.188Z,12.89
2022-10-21T03:11:35.590Z,12.92
2022-10-21T03:14:04.205Z,12.90
2022-10-21T03:16:32.720Z,12.89
2022-10-21T03:19:01.480Z,12.88
2022-10-21T03:21:30.227Z,12.89
2022-10-21T03:24:00.415Z,12.87
2022-10-21T03:26:29.278Z,12.91
2022-10-21T03:29:01.887Z,12.88
2022-10-21T03:31:30.433Z,12.90
2022-10-21T03:33:58.711Z,12.89
2022-10-21T03:36:27.419Z,12.86
2022-10-21T03:38:55.964Z,12.85
2022-10-21T03:41:26.359Z,12.85
2022-10-21T03:43:55.036Z,12.92
2022-10-21T03:46:23.424Z,12.86
2022-10-21T03:48:52.045Z,12.83
2022-10-21T03:51:20.858Z,12.81
2022-10-21T03:53:50.155Z,12.78
2022-10-21T03:56:18.649Z,12.78
2022-10-21T03:58:49.841Z,12.78
2022-10-21T04:01:18.384Z,12.83
2022-10-21T04:03:47.021Z,12.82
2022-10-21T04:06:15.636Z,12.84
2022-10-21T04:08:44.058Z,12.75
2022-10-21T04:11:13.033Z,12.70
2022-10-21T04:13:41.554Z,12.70
2022-10-21T04:16:16.970Z,12.68
2022-10-21T04:18:45.822Z,12.64
2022-10-21T04:21:14.959Z,12.64
2022-10-21T04:23:44.174Z,12.67
2022-10-21T04:26:13.344Z,12.69
2022-10-21T04:28:41.711Z,12.78
2022-10-21T04:31:12.409Z,12.71
2022-10-21T04:33:41.142Z,12.75
2022-10-21T04:36:10.204Z,12.78
2022-10-21T04:38:39.807Z,12.83
2022-10-21T04:41:08.313Z,12.93
2022-10-21T04:43:39.436Z,13.07
2022-10-21T04:46:29.389Z,12.96
2022-10-21T04:49:11.599Z,12.95
2022-10-21T04:52:00.288Z,13.01
2022-10-21T04:54:40.396Z,13.05
2022-10-21T04:57:33.576Z,13.03
2022-10-21T05:00:14.742Z,13.04
2022-10-21T05:02:44.643Z,13.08
2022-10-21T05:05:13.006Z,13.13
2022-10-21T05:07:41.989Z,13.07
2022-10-21T05:10:11.705Z,13.10
2022-10-21T05:12:40.011Z,13.09
2022-10-21T05:15:10.188Z,13.08
2022-10-21T05:17:39.026Z,13.04
2022-10-21T05:20:11.247Z,13.07
2022-10-21T05:22:41.178Z,12.98
2022-10-21T05:25:10.781Z,12.95
2022-10-21T05:27:39.759Z,12.97
2022-10-21T05:30:09.881Z,12.97
2022-10-21T05:32:38.418Z,12.98
2022-10-21T05:35:09.501Z,12.99
2022-10-21T05:37:37.812Z,12.94
2022-10-21T05:40:08.858Z,12.94
2022-10-21T05:42:37.649Z,12.93
2022-10-21T05:45:07.854Z,12.98
2022-10-21T05:47:36.473Z,12.91
2022-10-21T05:50:06.012Z,12.89
2022-10-21T05:52:36.005Z,12.87
2022-10-21T05:55:04.837Z,12.87
2022-10-21T05:57:33.769Z,12.88
2022-10-21T06:00:02.416Z,12.89
2022-10-21T06:02:31.864Z,12.91
2022-10-21T06:05:00.479Z,12.91
2022-10-21T06:07:29.771Z,12.89
2022-10-21T06:09:59.842Z,12.92
2022-10-21T06:12:28.304Z,12.90
2022-10-21T06:14:56.778Z,12.97
2022-10-21T06:17:25.294Z,12.93
2022-10-21T06:19:54.061Z,12.93
2022-10-21T06:22:22.719Z,12.92
2022-10-21T06:24:51.365Z,12.93
2022-10-21T06:27:21.721Z,12.97
2022-10-21T06:29:50.027Z,12.98
2022-10-21T06:32:18.327Z,13.02
2022-10-21T06:34:46.868Z,13.06
2022-10-21T06:37:15.151Z,13.11
2022-10-21T06:39:43.549Z,13.07
2022-10-21T06:42:15.540Z,13.05
2022-10-21T06:44:57.975Z,13.03
2022-10-21T06:47:42.237Z,13.03
2022-10-21T06:50:22.683Z,13.04
2022-10-21T06:53:02.910Z,13.03
2022-10-21T06:55:41.840Z,13.06
2022-10-21T06:58:19.009Z,13.02
2022-10-21T07:00:49.126Z,13.01
2022-10-21T07:03:34.613Z,13.00
2022-10-21T07:06:15.372Z,13.03
2022-10-21T07:08:59.674Z,13.04
2022-10-21T07:11:45.373Z,13.06
2022-10-21T07:14:25.237Z,13.10
2022-10-21T07:17:15.288Z,13.11
2022-10-21T07:19:45.949Z,13.15
2022-10-21T07:22:15.444Z,13.17
2022-10-21T07:24:49.227Z,13.18
2022-10-21T07:27:17.808Z,13.23
2022-10-21T07:29:52.200Z,13.29
2022-10-21T07:32:22.280Z,13.31
2022-10-21T07:34:53.021Z,13.33
2022-10-21T07:37:21.672Z,13.41
2022-10-21T07:39:50.267Z,13.35
2022-10-21T07:42:18.660Z,13.32
2022-10-21T07:44:48.071Z,13.28
2022-10-21T07:47:17.549Z,13.31
2022-10-21T07:49:47.245Z,13.40
2022-10-21T07:54:48.916Z,13.47
2022-10-21T07:57:18.162Z,13.52
2022-10-21T07:59:46.863Z,13.52
2022-10-21T08:02:15.838Z,13.52
2022-10-21T08:04:44.645Z,13.54
2022-10-21T08:07:14.472Z,13.59
2022-10-21T08:09:42.809Z,13.65
2022-10-21T08:12:14.470Z,13.62
2022-10-21T08:14:45.582Z,13.62
2022-10-21T08:17:13.864Z,13.60
2022-10-21T08:19:42.261Z,13.59
2022-10-21T08:22:10.828Z,13.59
2022-10-21T08:24:42.358Z,13.60
2022-10-21T08:27:10.928Z,13.59
2022-10-21T08:29:40.147Z,13.51
2022-10-21T08:32:08.714Z,13.47
2022-10-21T08:34:38.413Z,13.43
2022-10-21T08:37:07.071Z,13.44
2022-10-21T08:39:35.613Z,13.46
2022-10-21T08:42:12.448Z,13.45
2022-10-21T08:44:45.865Z,13.50
2022-10-21T08:47:26.160Z,13.53
2022-10-21T08:50:03.408Z,13.52
2022-10-21T08:52:40.910Z,13.45
2022-10-21T08:55:17.676Z,13.48
2022-10-21T08:57:48.853Z,13.53
2022-10-21T09:00:25.164Z,13.48
2022-10-21T09:03:09.500Z,13.50
2022-10-21T09:06:00.881Z,13.54
2022-10-21T09:08:39.289Z,13.56
2022-10-21T09:11:20.203Z,13.54
2022-10-21T09:14:14.377Z,13.54
2022-10-21T09:16:55.762Z,13.65
2022-10-21T09:19:36.437Z,13.70
2022-10-21T09:22:35.529Z,13.65
2022-10-21T09:25:19.440Z,13.70
2022-10-21T09:27:55.980Z,13.77
2022-10-21T09:30:29.019Z,13.80
2022-10-21T09:33:01.607Z,13.75
2022-10-21T09:35:38.448Z,13.84
2022-10-21T09:38:19.754Z,13.79
2022-10-21T09:41:06.196Z,13.79
2022-10-21T09:43:34.750Z,13.74
2022-10-21T09:46:05.579Z,13.71
2022-10-21T09:49:14.027Z,13.62
2022-10-21T09:51:35.593Z,13.70
2022-10-21T09:54:09.887Z,13.73
2022-10-21T09:56:44.774Z,13.78
2022-10-21T09:59:16.652Z,13.68
2022-10-21T10:01:49.553Z,13.73
2022-10-21T10:04:24.435Z,13.80
2022-10-21T10:06:53.464Z,13.88
2022-10-21T10:09:28.838Z,13.98
2022-10-21T10:12:02.634Z,14.04
2022-10-21T10:14:34.410Z,14.11
2022-10-21T10:17:29.500Z,14.25
2022-10-21T10:20:17.882Z,14.36
2022-10-21T10:22:48.664Z,14.42
2022-10-21T10:25:25.912Z,14.54
2022-10-21T10:27:57.811Z,14.72
2022-10-21T10:30:37.023Z,15.02
2022-10-21T10:33:15.932Z,15.11
2022-10-21T10:35:50.262Z,14.83
2022-10-21T10:38:25.339Z,14.71
2022-10-21T10:40:57.834Z,14.57
2022-10-21T10:43:31.679Z,14.58
2022-10-21T10:46:02.847Z,14.53
2022-10-21T10:48:39.027Z,14.60
2022-10-21T10:51:26.418Z,14.84
2022-10-21T10:54:19.307Z,15.03
2022-10-21T10:56:54.077Z,15.23
2022-10-21T10:59:33.986Z,15.34
2022-10-21T11:02:20.649Z,15.37
2022-10-21T11:05:08.524Z,15.66
2022-10-21T11:07:45.437Z,15.74
2022-10-21T11:10:27.922Z,16.00
2022-10-21T11:12:57.961Z,16.19
2022-10-21T11:15:34.457Z,16.37
2022-10-21T11:18:30.174Z,16.43
2022-10-21T11:21:09.075Z,16.62
2022-10-21T11:24:13.733Z,16.68
2022-10-21T11:26:51.918Z,16.76
2022-10-21T11:29:35.894Z,16.78
2022-10-21T11:32:19.448Z,16.93
2022-10-21T11:35:01.801Z,16.98
2022-10-21T11:37:46.766Z,16.67
2022-10-21T11:40:27.977Z,16.86
2022-10-21T11:42:58.667Z,16.59
2022-10-21T11:45:42.301Z,16.72
2022-10-21T11:48:21.185Z,16.73
2022-10-21T11:51:03.739Z,17.19
2022-10-21T11:53:50.453Z,17.33
2022-10-21T11:56:30.954Z,17.48
2022-10-21T11:59:13.001Z,18.05
2022-10-21T12:01:49.865Z,18.10
2022-10-21T12:04:26.590Z,17.84
2022-10-21T12:07:11.207Z,17.78
2022-10-21T12:09:51.504Z,17.55
2022-10-21T12:12:24.212Z,17.36
2022-10-21T12:14:57.810Z,17.35
2022-10-21T12:17:27.167Z,17.06
2022-10-21T12:20:01.876Z,16.79
2022-10-21T12:22:34.173Z,16.63
2022-10-21T12:25:15.117Z,16.42
2022-10-21T12:27:46.718Z,16.39
2022-10-21T12:30:24.839Z,16.47
2022-10-21T12:33:15.355Z,16.45
2022-10-21T12:35:50.293Z,16.56
2022-10-21T12:38:26.761Z,16.67
2022-10-21T12:41:28.647Z,16.71
2022-10-21T12:44:05.456Z,16.85
2022-10-21T12:46:40.233Z,16.87
2022-10-21T12:49:23.018Z,16.58
2022-10-21T12:51:56.101Z,16.57
2022-10-21T12:54:30.501Z,16.53
2022-10-21T12:57:06.745Z,16.51
2022-10-21T12:59:37.888Z,16.57
2022-10-21T13:02:28.411Z,16.43
2022-10-21T13:04:59.300Z,16.50
2022-10-21T13:07:40.689Z,16.51
2022-10-21T13:10:36.096Z,16.53
2022-10-21T13:13:31.279Z,16.44
2022-10-21T13:16:01.869Z,16.45
2022-10-21T13:18:56.723Z,16.33
2022-10-21T13:21:37.342Z,16.34
2022-10-21T13:24:17.955Z,16.34
2022-10-21T13:26:51.639Z,16.24
2022-10-21T13:29:28.519Z,16.11
2022-10-21T13:32:24.718Z,16.18
2022-10-21T13:35:01.022Z,16.30
2022-10-21T13:37:35.205Z,16.37
2022-10-21T13:40:07.950Z,16.33
2022-10-21T13:42:40.536Z,16.29
2022-10-21T13:45:25.834Z,16.18
2022-10-21T13:48:15.041Z,16.18
2022-10-21T13:50:46.751Z,16.19
2022-10-21T13:53:36.105Z,16.10
2022-10-21T13:56:07.479Z,16.21
2022-10-21T13:58:40.423Z,16.26
2022-10-21T14:01:13.042Z,16.27
2022-10-21T14:03:42.683Z,16.29
2022-10-21T14:06:13.489Z,16.27
2022-10-21T14:08:45.476Z,16.34
2022-10-21T14:11:19.344Z,16.23
2022-10-21T14:13:51.063Z,16.24
2022-10-21T14:16:31.895Z,16.15
2022-10-21T14:19:16.389Z,16.17
2022-10-21T14:21:52.867Z,16.12
2022-10-21T14:24:29.705Z,16.17
2022-10-21T14:27:02.695Z,16.21
2022-10-21T14:29:34.545Z,16.17
2022-10-21T14:32:08.376Z,16.25
2022-10-21T14:35:06.041Z,16.24
2022-10-21T14:37:45.592Z,16.17
2022-10-21T14:40:24.310Z,16.20
2022-10-21T14:42:53.486Z,16.36
2022-10-21T14:45:27.931Z,17.30
2022-10-21T14:48:10.407Z,18.53
2022-10-21T14:50:44.321Z,18.26
2022-10-21T14:53:18.035Z,17.56
2022-10-21T14:55:49.008Z,17.17
2022-10-21T14:58:24.069Z,16.82
2022-10-21T15:00:57.682Z,16.75
2022-10-21T15:03:42.067Z,16.70
2022-10-21T15:06:14.111Z,16.66
2022-10-21T15:08:45.066Z,16.87
2022-10-21T15:11:36.525Z,18.52
2022-10-21T15:14:28.805Z,20.34
2022-10-21T15:16:59.683Z,21.62
2022-10-21T15:19:35.812Z,20.26
2022-10-21T15:22:06.347Z,20.13
2022-10-21T15:24:44.028Z,19.03
2022-10-21T15:27:19.645Z,18.45
2022-10-21T15:29:50.149Z,17.76
2022-10-21T15:32:25.613Z,17.21
2022-10-21T15:35:03.024Z,16.86
2022-10-21T15:37:32.973Z,16.63
2022-10-21T15:40:01.575Z,16.49
2022-10-21T15:42:30.482Z,16.33
2022-10-21T15:44:59.354Z,16.22
2022-10-21T15:47:29.390Z,16.04
2022-10-21T15:49:57.920Z,16.02
2022-10-21T15:52:28.749Z,15.86
2022-10-21T15:54:59.358Z,15.78
2022-10-21T15:57:28.923Z,15.69
2022-10-21T15:59:57.631Z,15.68
2022-10-21T16:02:27.510Z,15.68
2022-10-21T16:04:56.048Z,15.63
2022-10-21T16:07:34.724Z,15.50
2022-10-21T16:10:03.919Z,15.50
2022-10-21T16:12:32.333Z,15.53
2022-10-21T16:15:01.289Z,15.51
2022-10-21T16:17:30.964Z,15.54
2022-10-21T16:19:59.649Z,15.48
2022-10-21T16:22:31.313Z,15.43
2022-10-21T16:25:01.227Z,15.37
2022-10-21T16:27:43.926Z,15.29
2022-10-21T16:30:22.345Z,15.22
2022-10-21T16:32:51.516Z,15.13
2022-10-21T16:35:21.934Z,15.13
2022-10-21T16:37:52.735Z,15.04
2022-10-21T16:40:24.863Z,14.95
2022-10-21T16:42:54.168Z,14.83
2022-10-21T16:45:25.559Z,14.78
2022-10-21T16:47:58.560Z,14.74
2022-10-21T16:50:42.363Z,14.72
2022-10-21T16:53:15.699Z,14.64
2022-10-21T16:55:46.644Z,14.61
2022-10-21T16:58:15.398Z,14.57
2022-10-21T17:00:45.111Z,14.56
2022-10-21T17:03:13.865Z,14.52
2022-10-21T17:05:46.428Z,14.45
2022-10-21T17:08:14.899Z,14.47
2022-10-21T17:10:46.835Z,14.43
2022-10-21T17:13:16.592Z,14.42
2022-10-21T17:15:45.388Z,14.42
2022-10-21T17:18:15.701Z,14.44
2022-10-21T17:20:45.085Z,14.42
2022-10-21T17:23:13.516Z,14.42
2022-10-21T17:25:42.025Z,14.44
2022-10-21T17:28:11.796Z,14.51
2022-10-21T17:30:42.878Z,14.45
2022-10-21T17:33:14.214Z,14.40
2022-10-21T17:35:43.145Z,14.39
2022-10-21T17:38:11.520Z,14.38
2022-10-21T17:40:40.343Z,14.42
2022-10-21T17:43:08.779Z,14.41
2022-10-21T17:45:39.180Z,14.40
2022-10-21T17:48:07.932Z,14.37
2022-10-21T17:50:38.714Z,14.35
2022-10-21T17:53:08.447Z,14.34
2022-10-21T17:55:36.966Z,14.34
2022-10-21T17:58:06.686Z,14.27
2022-10-21T18:00:34.985Z,14.25
2022-10-21T18:03:04.727Z,14.22
2022-10-21T18:05:33.938Z,14.18
2022-10-21T18:08:03.314Z,14.23
2022-10-21T18:10:31.887Z,14.24
2022-10-21T18:13:00.811Z,14.19
2022-10-21T18:15:29.551Z,14.24
2022-10-21T18:17:57.912Z,14.18
2022-10-21T18:20:28.033Z,14.14
2022-10-21T18:23:35.315Z,14.13
2022-10-21T18:26:08.154Z,14.11
2022-10-21T18:28:43.245Z,14.15
2022-10-21T18:31:15.713Z,14.15
2022-10-21T18:33:46.893Z,14.17
2022-10-21T18:36:19.322Z,14.14
2022-10-21T18:38:49.962Z,14.13
2022-10-21T18:41:26.797Z,14.13
2022-10-21T18:44:02.017Z,14.10
2022-10-21T18:46:33.910Z,14.11
2022-10-21T18:49:05.452Z,14.11
2022-10-21T18:51:35.962Z,14.10
2022-10-21T18:54:07.818Z,14.06
2022-10-21T18:56:38.508Z,14.06
2022-10-21T18:59:10.928Z,14.02
2022-10-21T19:01:42.844Z,14.05
2022-10-21T19:06:46.301Z,14.00
2022-10-21T19:09:19.728Z,13.98
2022-10-21T19:11:49.383Z,13.96
2022-10-21T19:14:20.575Z,13.94
2022-10-21T19:16:51.827Z,13.94
2022-10-21T19:19:22.146Z,13.93
2022-10-21T19:21:51.945Z,13.95
2022-10-21T19:24:21.345Z,13.97
2022-10-21T19:26:55.025Z,13.95
2022-10-21T19:29:27.392Z,13.93
2022-10-21T19:31:58.150Z,13.93
2022-10-21T19:34:52.296Z,13.92
2022-10-21T19:37:24.897Z,13.92
2022-10-21T19:39:53.377Z,13.92
2022-10-21T19:42:25.177Z,13.93
2022-10-21T19:44:59.357Z,13.92
2022-10-21T19:47:32.397Z,13.90
2022-10-21T19:50:16.424Z,13.91
2022-10-21T19:52:50.899Z,13.95
2022-10-21T19:55:22.466Z,13.95
2022-10-21T19:57:54.535Z,13.94
2022-10-21T20:00:25.253Z,13.90
2022-10-21T20:02:54.821Z,13.90
2022-10-21T20:05:35.411Z,13.93
2022-10-21T20:08:08.101Z,13.89
2022-10-21T20:10:40.432Z,13.91
2022-10-21T20:13:10.677Z,13.97
2022-10-21T20:15:48.100Z,13.99
2022-10-21T20:18:19.674Z,13.91
2022-10-21T20:20:50.270Z,13.93
2022-10-21T20:23:21.358Z,13.92
2022-10-21T20:25:54.832Z,13.95
2022-10-21T20:28:31.563Z,13.93
2022-10-21T20:31:01.821Z,13.97
2022-10-21T20:33:35.801Z,13.98
2022-10-21T20:36:08.101Z,13.95
2022-10-21T20:38:38.020Z,13.92
2022-10-21T20:41:08.533Z,13.92
2022-10-21T20:43:39.216Z,13.92
2022-10-21T20:46:11.654Z,13.91
2022-10-21T20:48:42.813Z,13.88
2022-10-21T20:51:13.137Z,13.88
2022-10-21T20:56:21.876Z,13.82
2022-10-21T20:58:51.081Z,13.82
2022-10-21T21:01:22.373Z,13.82
2022-10-21T21:03:51.882Z,13.78
2022-10-21T21:06:22.202Z,13.80
2022-10-21T21:09:15.132Z,13.80
2022-10-21T21:11:43.821Z,13.83
2022-10-21T21:14:15.307Z,13.81
2022-10-21T21:16:44.029Z,13.82
2022-10-21T21:19:13.994Z,13.80
2022-10-21T21:21:44.101Z,13.80
2022-10-21T21:24:15.696Z,13.78
2022-10-21T21:26:44.301Z,13.82
2022-10-21T21:29:15.590Z,13.79
2022-10-21T21:31:50.432Z,13.77
2022-10-21T21:34:21.486Z,13.77
2022-10-21T21:36:50.060Z,13.78
2022-10-21T21:39:20.802Z,13.81
2022-10-21T21:41:49.830Z,13.77
2022-10-21T21:44:18.549Z,13.78
2022-10-21T21:46:47.312Z,13.75
2022-10-21T21:49:16.345Z,13.78
2022-10-21T21:51:55.103Z,13.74
2022-10-21T21:54:25.163Z,13.75
2022-10-21T21:56:57.377Z,13.74
2022-10-21T21:59:43.560Z,13.75
2022-10-21T22:02:12.365Z,13.77
2022-10-21T22:04:42.393Z,13.78
2022-10-21T22:07:11.115Z,13.78
2022-10-21T22:09:42.491Z,13.76
2022-10-21T22:12:15.028Z,13.77
2022-10-21T22:14:44.128Z,13.76
2022-10-21T22:17:12.901Z,13.75
2022-10-21T22:19:43.625Z,13.75
2022-10-21T22:22:13.367Z,13.74
2022-10-21T22:24:43.709Z,13.73
2022-10-21T22:27:12.784Z,13.73
2022-10-21T22:29:41.729Z,13.72
2022-10-21T22:32:18.835Z,13.76
2022-10-21T22:34:49.797Z,13.75
2022-10-21T22:37:18.642Z,13.76
2022-10-21T22:39:50.362Z,13.78
2022-10-21T22:42:19.250Z,13.78
2022-10-21T22:44:49.029Z,13.77
2022-10-21T22:47:18.707Z,13.76
2022-10-21T22:49:47.129Z,13.77
2022-10-21T22:52:18.469Z,13.78
2022-10-21T22:54:49.798Z,13.79
2022-10-21T22:57:23.505Z,13.81
2022-10-21T22:59:55.370Z,13.78
2022-10-21T23:02:24.536Z,13.78
2022-10-21T23:04:53.071Z,13.78
2022-10-21T23:07:21.654Z,13.79
2022-10-21T23:09:51.639Z,13.69
2022-10-21T23:12:29.341Z,13.72
2022-10-21T23:14:57.793Z,13.75
2022-10-21T23:17:26.637Z,13.76
2022-10-21T23:20:02.772Z,13.78
2022-10-21T23:22:34.278Z,13.75
2022-10-21T23:25:03.259Z,13.76
2022-10-21T23:27:33.293Z,13.74
2022-10-21T23:30:03.260Z,13.73
2022-10-21T23:32:33.299Z,13.70
2022-10-21T23:35:01.983Z,13.66
2022-10-21T23:37:30.795Z,13.66
2022-10-21T23:40:00.567Z,13.65
2022-10-21T23:42:29.129Z,13.62
2022-10-21T23:44:59.385Z,13.73
2022-10-21T23:47:28.329Z,13.64
2022-10-21T23:49:59.110Z,13.63
2022-10-21T23:52:30.037Z,13.64
2022-10-21T23:54:58.350Z,13.62
2022-10-21T23:57:27.947Z,13.63
2022-10-21T23:59:56.858Z,13.68
